North Billerica, Massachusetts
Current Conditions -  °F | °C
As of 9:56 AM on Friday 24 Oct 2014 (Local Time) from KBED Reporting Station
Overcast Overcast  
Wind Chill: 50°   Ceiling: 1400
Heat Index: 50°   Visibility: 10mi
Dew Point: 46°   Wind: 9mph
Humidity: 86%   Direction: 320°NW
Pressure: 29.71"   Gusts: NA
Location:  42.58°N, 71.28°W
Report Text: KBED 241356Z 32008KT 10SM OVC014 10/08 A2971 RMK AO2 SLP075 T01000078
Loading
Personal Weather Stations






























Interactive Weather Map
Tropical Storm Tracking
New forecast layout! Learn more

10-Day Weather Forecast

Advertisements
Track Severe Weather on mobile